sensor_id;sensor_type;location;lat;lon;timestamp;P1;durP1;ratioP1;P2;durP2;ratioP2
58685;SDS011;44465;53.206;-6.106;2024-01-30T00:00:32;2.53;;;1.20;;
58685;SDS011;44465;53.206;-6.106;2024-01-30T00:05:25;1.55;;;1.30;;
58685;SDS011;44465;53.206;-6.106;2024-01-30T00:07:51;2.08;;;1.33;;
58685;SDS011;44465;53.206;-6.106;2024-01-30T00:10:19;2.05;;;1.27;;
58685;SDS011;44465;53.206;-6.106;2024-01-30T00:12:45;2.47;;;1.63;;
58685;SDS011;44465;53.206;-6.106;2024-01-30T00:15:12;1.85;;;1.30;;
58685;SDS011;44465;53.206;-6.106;2024-01-30T00:17:38;2.75;;;1.38;;
58685;SDS011;44465;53.206;-6.106;2024-01-30T00:20:05;3.00;;;1.30;;
58685;SDS011;44465;53.206;-6.106;2024-01-30T00:22:32;2.28;;;1.30;;
58685;SDS011;44465;53.206;-6.106;2024-01-30T00:24:58;3.95;;;1.33;;
58685;SDS011;44465;53.206;-6.106;2024-01-30T00:27:23;1.55;;;1.20;;
58685;SDS011;44465;53.206;-6.106;2024-01-30T00:29:49;2.65;;;1.20;;
58685;SDS011;44465;53.206;-6.106;2024-01-30T00:32:14;2.08;;;1.40;;
58685;SDS011;44465;53.206;-6.106;2024-01-30T00:34:41;4.45;;;1.50;;
58685;SDS011;44465;53.206;-6.106;2024-01-30T00:37:07;2.05;;;1.33;;
58685;SDS011;44465;53.206;-6.106;2024-01-30T00:39:41;2.67;;;1.45;;
58685;SDS011;44465;53.206;-6.106;2024-01-30T00:42:07;1.45;;;1.27;;
58685;SDS011;44465;53.206;-6.106;2024-01-30T00:44:34;4.00;;;1.40;;
58685;SDS011;44465;53.206;-6.106;2024-01-30T00:47:02;2.28;;;1.40;;
58685;SDS011;44465;53.206;-6.106;2024-01-30T00:49:28;3.13;;;1.27;;
58685;SDS011;44465;53.206;-6.106;2024-01-30T00:51:53;3.22;;;1.50;;
58685;SDS011;44465;53.206;-6.106;2024-01-30T00:54:19;3.55;;;1.50;;
58685;SDS011;44465;53.206;-6.106;2024-01-30T00:56:45;3.08;;;1.35;;
58685;SDS011;44465;53.206;-6.106;2024-01-30T00:59:11;2.08;;;1.25;;
58685;SDS011;44465;53.206;-6.106;2024-01-30T01:01:36;1.52;;;1.17;;
58685;SDS011;44465;53.206;-6.106;2024-01-30T01:04:02;2.60;;;1.60;;
58685;SDS011;44465;53.206;-6.106;2024-01-30T01:06:28;2.58;;;1.27;;
58685;SDS011;44465;53.206;-6.106;2024-01-30T01:08:53;1.30;;;1.20;;
58685;SDS011;44465;53.206;-6.106;2024-01-30T01:11:19;3.58;;;1.45;;
58685;SDS011;44465;53.206;-6.106;2024-01-30T01:13:44;2.45;;;1.40;;
58685;SDS011;44465;53.206;-6.106;2024-01-30T01:16:10;2.47;;;1.38;;
58685;SDS011;44465;53.206;-6.106;2024-01-30T01:18:35;2.13;;;1.25;;
58685;SDS011;44465;53.206;-6.106;2024-01-30T01:21:01;2.70;;;1.52;;
58685;SDS011;44465;53.206;-6.106;2024-01-30T01:23:26;3.38;;;1.73;;
58685;SDS011;44465;53.206;-6.106;2024-01-30T01:25:52;3.58;;;1.48;;
58685;SDS011;44465;53.206;-6.106;2024-01-30T01:28:18;3.13;;;1.40;;
58685;SDS011;44465;53.206;-6.106;2024-01-30T01:30:44;2.47;;;1.55;;
58685;SDS011;44465;53.206;-6.106;2024-01-30T01:33:09;2.10;;;1.33;;
58685;SDS011;44465;53.206;-6.106;2024-01-30T01:35:35;2.20;;;1.33;;
58685;SDS011;44465;53.206;-6.106;2024-01-30T01:38:01;3.25;;;1.60;;
58685;SDS011;44465;53.206;-6.106;2024-01-30T01:40:27;2.75;;;1.60;;
58685;SDS011;44465;53.206;-6.106;2024-01-30T01:42:53;2.90;;;1.17;;
58685;SDS011;44465;53.206;-6.106;2024-01-30T01:45:20;2.05;;;1.33;;
58685;SDS011;44465;53.206;-6.106;2024-01-30T01:47:47;1.98;;;1.10;;
58685;SDS011;44465;53.206;-6.106;2024-01-30T01:50:16;3.80;;;1.23;;
58685;SDS011;44465;53.206;-6.106;2024-01-30T01:52:47;1.75;;;1.05;;
58685;SDS011;44465;53.206;-6.106;2024-01-30T01:55:13;1.80;;;1.45;;
58685;SDS011;44465;53.206;-6.106;2024-01-30T01:57:41;1.20;;;1.00;;
58685;SDS011;44465;53.206;-6.106;2024-01-30T02:00:07;2.15;;;1.55;;
58685;SDS011;44465;53.206;-6.106;2024-01-30T02:02:35;3.10;;;1.27;;
58685;SDS011;44465;53.206;-6.106;2024-01-30T02:05:02;2.45;;;1.30;;
58685;SDS011;44465;53.206;-6.106;2024-01-30T02:07:28;2.55;;;1.27;;
58685;SDS011;44465;53.206;-6.106;2024-01-30T02:09:54;1.17;;;1.08;;
58685;SDS011;44465;53.206;-6.106;2024-01-30T02:12:20;3.13;;;1.50;;
58685;SDS011;44465;53.206;-6.106;2024-01-30T02:14:46;2.15;;;1.42;;
58685;SDS011;44465;53.206;-6.106;2024-01-30T02:17:12;1.55;;;1.25;;
58685;SDS011;44465;53.206;-6.106;2024-01-30T02:19:38;1.92;;;1.20;;
58685;SDS011;44465;53.206;-6.106;2024-01-30T02:22:04;2.08;;;1.00;;
58685;SDS011;44465;53.206;-6.106;2024-01-30T02:24:30;1.80;;;1.13;;
58685;SDS011;44465;53.206;-6.106;2024-01-30T02:26:56;2.13;;;1.15;;
58685;SDS011;44465;53.206;-6.106;2024-01-30T02:29:21;4.47;;;1.40;;
58685;SDS011;44465;53.206;-6.106;2024-01-30T02:31:47;2.22;;;1.05;;
58685;SDS011;44465;53.206;-6.106;2024-01-30T02:34:13;1.60;;;1.10;;
58685;SDS011;44465;53.206;-6.106;2024-01-30T02:36:41;3.35;;;1.40;;
58685;SDS011;44465;53.206;-6.106;2024-01-30T02:39:07;2.10;;;0.82;;
58685;SDS011;44465;53.206;-6.106;2024-01-30T02:41:33;1.40;;;0.90;;
58685;SDS011;44465;53.206;-6.106;2024-01-30T02:43:58;1.58;;;1.13;;
58685;SDS011;44465;53.206;-6.106;2024-01-30T02:46:24;2.10;;;1.23;;
58685;SDS011;44465;53.206;-6.106;2024-01-30T02:48:50;2.20;;;1.40;;
58685;SDS011;44465;53.206;-6.106;2024-01-30T02:51:15;1.10;;;0.80;;
58685;SDS011;44465;53.206;-6.106;2024-01-30T02:53:41;1.45;;;1.10;;
58685;SDS011;44465;53.206;-6.106;2024-01-30T02:56:07;2.00;;;1.10;;
58685;SDS011;44465;53.206;-6.106;2024-01-30T02:58:36;2.97;;;1.10;;
58685;SDS011;44465;53.206;-6.106;2024-01-30T03:01:02;2.25;;;1.10;;
58685;SDS011;44465;53.206;-6.106;2024-01-30T03:03:28;1.80;;;0.88;;
58685;SDS011;44465;53.206;-6.106;2024-01-30T03:05:53;1.42;;;1.05;;
58685;SDS011;44465;53.206;-6.106;2024-01-30T03:08:19;2.17;;;0.90;;
58685;SDS011;44465;53.206;-6.106;2024-01-30T03:10:46;2.78;;;1.20;;
58685;SDS011;44465;53.206;-6.106;2024-01-30T03:13:11;1.85;;;1.08;;
58685;SDS011;44465;53.206;-6.106;2024-01-30T03:15:37;2.33;;;1.15;;
58685;SDS011;44465;53.206;-6.106;2024-01-30T03:18:03;1.35;;;1.00;;
58685;SDS011;44465;53.206;-6.106;2024-01-30T03:20:31;3.05;;;1.00;;
58685;SDS011;44465;53.206;-6.106;2024-01-30T03:22:57;1.75;;;1.05;;
58685;SDS011;44465;53.206;-6.106;2024-01-30T03:25:25;1.15;;;1.02;;
58685;SDS011;44465;53.206;-6.106;2024-01-30T03:27:51;1.85;;;1.08;;
58685;SDS011;44465;53.206;-6.106;2024-01-30T03:30:16;3.20;;;1.40;;
58685;SDS011;44465;53.206;-6.106;2024-01-30T03:32:42;2.35;;;0.93;;
58685;SDS011;44465;53.206;-6.106;2024-01-30T03:35:09;1.35;;;0.80;;
58685;SDS011;44465;53.206;-6.106;2024-01-30T03:37:35;2.63;;;1.05;;
58685;SDS011;44465;53.206;-6.106;2024-01-30T03:40:01;2.70;;;1.40;;
58685;SDS011;44465;53.206;-6.106;2024-01-30T03:42:27;1.48;;;0.93;;
58685;SDS011;44465;53.206;-6.106;2024-01-30T03:44:53;1.45;;;1.10;;
58685;SDS011;44465;53.206;-6.106;2024-01-30T03:47:20;2.07;;;1.10;;
58685;SDS011;44465;53.206;-6.106;2024-01-30T03:49:47;2.40;;;1.00;;
58685;SDS011;44465;53.206;-6.106;2024-01-30T03:52:14;1.20;;;0.93;;
58685;SDS011;44465;53.206;-6.106;2024-01-30T03:54:41;1.30;;;1.02;;
58685;SDS011;44465;53.206;-6.106;2024-01-30T03:57:07;2.85;;;1.30;;
58685;SDS011;44465;53.206;-6.106;2024-01-30T03:59:34;3.13;;;1.10;;
58685;SDS011;44465;53.206;-6.106;2024-01-30T04:02:01;2.28;;;1.17;;
58685;SDS011;44465;53.206;-6.106;2024-01-30T04:04:29;0.77;;;0.68;;
58685;SDS011;44465;53.206;-6.106;2024-01-30T04:06:57;1.50;;;0.77;;
58685;SDS011;44465;53.206;-6.106;2024-01-30T04:09:24;1.75;;;0.80;;
58685;SDS011;44465;53.206;-6.106;2024-01-30T04:11:52;1.73;;;0.90;;
58685;SDS011;44465;53.206;-6.106;2024-01-30T04:14:19;2.33;;;1.13;;
58685;SDS011;44465;53.206;-6.106;2024-01-30T04:16:46;1.73;;;1.02;;
58685;SDS011;44465;53.206;-6.106;2024-01-30T04:19:11;1.92;;;0.98;;
58685;SDS011;44465;53.206;-6.106;2024-01-30T04:21:37;2.10;;;0.93;;
58685;SDS011;44465;53.206;-6.106;2024-01-30T04:24:03;1.33;;;1.23;;
58685;SDS011;44465;53.206;-6.106;2024-01-30T04:26:29;1.02;;;0.70;;
58685;SDS011;44465;53.206;-6.106;2024-01-30T04:28:55;1.95;;;0.90;;
58685;SDS011;44465;53.206;-6.106;2024-01-30T04:31:20;1.27;;;1.10;;
58685;SDS011;44465;53.206;-6.106;2024-01-30T04:33:46;1.23;;;0.65;;
58685;SDS011;44465;53.206;-6.106;2024-01-30T04:36:11;2.10;;;0.90;;
58685;SDS011;44465;53.206;-6.106;2024-01-30T04:38:37;1.38;;;0.85;;
58685;SDS011;44465;53.206;-6.106;2024-01-30T04:41:04;1.35;;;0.95;;
58685;SDS011;44465;53.206;-6.106;2024-01-30T04:43:30;1.38;;;0.80;;
58685;SDS011;44465;53.206;-6.106;2024-01-30T04:45:56;2.50;;;0.90;;
58685;SDS011;44465;53.206;-6.106;2024-01-30T04:48:21;1.38;;;0.90;;
58685;SDS011;44465;53.206;-6.106;2024-01-30T04:50:47;1.55;;;0.98;;
58685;SDS011;44465;53.206;-6.106;2024-01-30T04:53:12;1.58;;;0.90;;
58685;SDS011;44465;53.206;-6.106;2024-01-30T04:55:38;2.60;;;1.02;;
58685;SDS011;44465;53.206;-6.106;2024-01-30T04:58:04;1.83;;;1.08;;
58685;SDS011;44465;53.206;-6.106;2024-01-30T05:00:29;0.95;;;0.47;;
58685;SDS011;44465;53.206;-6.106;2024-01-30T05:02:55;1.52;;;0.70;;
58685;SDS011;44465;53.206;-6.106;2024-01-30T05:05:21;2.13;;;0.82;;
58685;SDS011;44465;53.206;-6.106;2024-01-30T05:07:47;1.60;;;0.88;;
58685;SDS011;44465;53.206;-6.106;2024-01-30T05:10:13;1.15;;;0.90;;
58685;SDS011;44465;53.206;-6.106;2024-01-30T05:12:39;1.05;;;0.85;;
58685;SDS011;44465;53.206;-6.106;2024-01-30T05:15:05;3.50;;;0.95;;
58685;SDS011;44465;53.206;-6.106;2024-01-30T05:17:31;4.15;;;1.65;;
58685;SDS011;44465;53.206;-6.106;2024-01-30T05:19:57;2.42;;;0.95;;
58685;SDS011;44465;53.206;-6.106;2024-01-30T05:22:22;1.38;;;1.08;;
58685;SDS011;44465;53.206;-6.106;2024-01-30T05:24:48;2.00;;;0.95;;
58685;SDS011;44465;53.206;-6.106;2024-01-30T05:27:13;0.82;;;0.82;;
58685;SDS011;44465;53.206;-6.106;2024-01-30T05:29:39;2.05;;;0.70;;
58685;SDS011;44465;53.206;-6.106;2024-01-30T05:32:06;2.77;;;0.90;;
58685;SDS011;44465;53.206;-6.106;2024-01-30T05:34:31;1.48;;;0.68;;
58685;SDS011;44465;53.206;-6.106;2024-01-30T05:36:58;0.65;;;0.60;;
58685;SDS011;44465;53.206;-6.106;2024-01-30T05:39:23;0.65;;;0.65;;
58685;SDS011;44465;53.206;-6.106;2024-01-30T05:41:49;2.05;;;0.90;;
58685;SDS011;44465;53.206;-6.106;2024-01-30T05:44:14;1.05;;;0.93;;
58685;SDS011;44465;53.206;-6.106;2024-01-30T05:46:40;2.60;;;1.13;;
58685;SDS011;44465;53.206;-6.106;2024-01-30T05:49:05;1.00;;;0.60;;
58685;SDS011;44465;53.206;-6.106;2024-01-30T05:51:31;2.08;;;1.00;;
58685;SDS011;44465;53.206;-6.106;2024-01-30T05:53:56;1.25;;;1.10;;
58685;SDS011;44465;53.206;-6.106;2024-01-30T05:56:22;1.58;;;1.00;;
58685;SDS011;44465;53.206;-6.106;2024-01-30T05:58:48;2.55;;;0.63;;
58685;SDS011;44465;53.206;-6.106;2024-01-30T06:01:15;2.00;;;1.00;;
58685;SDS011;44465;53.206;-6.106;2024-01-30T06:03:41;1.48;;;0.82;;
58685;SDS011;44465;53.206;-6.106;2024-01-30T06:06:08;0.45;;;0.40;;
58685;SDS011;44465;53.206;-6.106;2024-01-30T06:08:34;2.42;;;0.77;;
58685;SDS011;44465;53.206;-6.106;2024-01-30T06:10:59;1.25;;;0.80;;
58685;SDS011;44465;53.206;-6.106;2024-01-30T06:13:25;0.80;;;0.52;;
58685;SDS011;44465;53.206;-6.106;2024-01-30T06:15:51;2.35;;;0.65;;
58685;SDS011;44465;53.206;-6.106;2024-01-30T06:18:17;1.25;;;0.55;;
58685;SDS011;44465;53.206;-6.106;2024-01-30T06:20:43;1.13;;;0.50;;
58685;SDS011;44465;53.206;-6.106;2024-01-30T06:23:08;2.33;;;0.55;;
58685;SDS011;44465;53.206;-6.106;2024-01-30T06:25:34;0.98;;;0.60;;
58685;SDS011;44465;53.206;-6.106;2024-01-30T06:28:00;2.85;;;0.80;;
58685;SDS011;44465;53.206;-6.106;2024-01-30T06:30:25;1.20;;;0.70;;
58685;SDS011;44465;53.206;-6.106;2024-01-30T06:32:51;2.22;;;0.90;;
58685;SDS011;44465;53.206;-6.106;2024-01-30T06:35:16;0.85;;;0.70;;
58685;SDS011;44465;53.206;-6.106;2024-01-30T06:37:42;2.35;;;0.70;;
58685;SDS011;44465;53.206;-6.106;2024-01-30T06:40:08;0.95;;;0.68;;
58685;SDS011;44465;53.206;-6.106;2024-01-30T06:42:34;1.38;;;0.80;;
58685;SDS011;44465;53.206;-6.106;2024-01-30T06:45:00;1.23;;;0.60;;
58685;SDS011;44465;53.206;-6.106;2024-01-30T06:47:25;0.80;;;0.80;;
58685;SDS011;44465;53.206;-6.106;2024-01-30T06:49:51;0.88;;;0.88;;
58685;SDS011;44465;53.206;-6.106;2024-01-30T06:52:16;1.55;;;0.60;;
58685;SDS011;44465;53.206;-6.106;2024-01-30T06:54:42;1.77;;;0.57;;
58685;SDS011;44465;53.206;-6.106;2024-01-30T06:57:07;1.33;;;0.30;;
58685;SDS011;44465;53.206;-6.106;2024-01-30T06:59:36;1.05;;;0.70;;
58685;SDS011;44465;53.206;-6.106;2024-01-30T07:02:02;0.43;;;0.43;;
58685;SDS011;44465;53.206;-6.106;2024-01-30T07:04:28;1.48;;;0.73;;
58685;SDS011;44465;53.206;-6.106;2024-01-30T07:06:53;2.00;;;0.90;;
58685;SDS011;44465;53.206;-6.106;2024-01-30T07:09:19;1.38;;;0.38;;
58685;SDS011;44465;53.206;-6.106;2024-01-30T07:11:44;0.80;;;0.70;;
58685;SDS011;44465;53.206;-6.106;2024-01-30T07:14:10;1.15;;;0.52;;
58685;SDS011;44465;53.206;-6.106;2024-01-30T07:16:35;1.00;;;0.50;;
58685;SDS011;44465;53.206;-6.106;2024-01-30T07:19:01;1.38;;;0.50;;
58685;SDS011;44465;53.206;-6.106;2024-01-30T07:21:27;1.35;;;0.65;;
58685;SDS011;44465;53.206;-6.106;2024-01-30T07:23:54;1.75;;;0.77;;
58685;SDS011;44465;53.206;-6.106;2024-01-30T07:26:20;0.88;;;0.85;;
58685;SDS011;44465;53.206;-6.106;2024-01-30T07:28:46;1.17;;;0.68;;
58685;SDS011;44465;53.206;-6.106;2024-01-30T07:31:11;0.85;;;0.60;;
58685;SDS011;44465;53.206;-6.106;2024-01-30T07:33:37;0.57;;;0.50;;
58685;SDS011;44465;53.206;-6.106;2024-01-30T07:36:02;0.85;;;0.60;;
58685;SDS011;44465;53.206;-6.106;2024-01-30T07:38:28;1.08;;;0.55;;
58685;SDS011;44465;53.206;-6.106;2024-01-30T07:40:56;1.92;;;0.80;;
58685;SDS011;44465;53.206;-6.106;2024-01-30T07:43:22;0.50;;;0.50;;
58685;SDS011;44465;53.206;-6.106;2024-01-30T07:45:47;1.83;;;0.77;;
58685;SDS011;44465;53.206;-6.106;2024-01-30T07:48:13;1.65;;;0.70;;
58685;SDS011;44465;53.206;-6.106;2024-01-30T07:50:39;1.20;;;0.80;;
58685;SDS011;44465;53.206;-6.106;2024-01-30T07:53:05;2.65;;;0.90;;
58685;SDS011;44465;53.206;-6.106;2024-01-30T07:55:31;1.80;;;0.63;;
58685;SDS011;44465;53.206;-6.106;2024-01-30T07:57:57;1.05;;;0.75;;
58685;SDS011;44465;53.206;-6.106;2024-01-30T08:00:24;1.73;;;1.23;;
58685;SDS011;44465;53.206;-6.106;2024-01-30T08:02:49;2.28;;;0.98;;
58685;SDS011;44465;53.206;-6.106;2024-01-30T08:05:15;1.83;;;0.90;;
58685;SDS011;44465;53.206;-6.106;2024-01-30T08:07:43;3.72;;;1.08;;
58685;SDS011;44465;53.206;-6.106;2024-01-30T08:10:11;2.28;;;1.05;;
58685;SDS011;44465;53.206;-6.106;2024-01-30T08:12:37;3.80;;;0.90;;
58685;SDS011;44465;53.206;-6.106;2024-01-30T08:15:04;2.17;;;0.90;;
58685;SDS011;44465;53.206;-6.106;2024-01-30T08:17:30;0.60;;;0.47;;
58685;SDS011;44465;53.206;-6.106;2024-01-30T08:19:55;1.38;;;0.60;;
58685;SDS011;44465;53.206;-6.106;2024-01-30T08:22:21;1.23;;;0.80;;
58685;SDS011;44465;53.206;-6.106;2024-01-30T08:24:46;1.67;;;0.80;;
58685;SDS011;44465;53.206;-6.106;2024-01-30T08:27:12;1.20;;;0.73;;
58685;SDS011;44465;53.206;-6.106;2024-01-30T08:29:38;1.98;;;0.68;;
58685;SDS011;44465;53.206;-6.106;2024-01-30T08:32:06;1.35;;;0.75;;
58685;SDS011;44465;53.206;-6.106;2024-01-30T08:34:32;1.50;;;0.63;;
58685;SDS011;44465;53.206;-6.106;2024-01-30T08:36:58;0.60;;;0.50;;
58685;SDS011;44465;53.206;-6.106;2024-01-30T08:39:24;2.35;;;0.88;;
58685;SDS011;44465;53.206;-6.106;2024-01-30T08:41:49;2.92;;;0.77;;
58685;SDS011;44465;53.206;-6.106;2024-01-30T08:44:15;2.05;;;0.73;;
58685;SDS011;44465;53.206;-6.106;2024-01-30T08:46:41;3.95;;;0.88;;
58685;SDS011;44465;53.206;-6.106;2024-01-30T08:49:07;0.77;;;0.70;;
58685;SDS011;44465;53.206;-6.106;2024-01-30T08:51:33;1.40;;;0.90;;
58685;SDS011;44465;53.206;-6.106;2024-01-30T08:53:59;1.33;;;0.93;;
58685;SDS011;44465;53.206;-6.106;2024-01-30T08:56:25;2.30;;;0.70;;
58685;SDS011;44465;53.206;-6.106;2024-01-30T08:58:50;1.75;;;0.82;;
58685;SDS011;44465;53.206;-6.106;2024-01-30T09:01:16;1.05;;;0.63;;
58685;SDS011;44465;53.206;-6.106;2024-01-30T09:03:42;1.98;;;0.77;;
58685;SDS011;44465;53.206;-6.106;2024-01-30T09:06:09;1.20;;;0.70;;
58685;SDS011;44465;53.206;-6.106;2024-01-30T09:08:35;1.05;;;0.70;;
58685;SDS011;44465;53.206;-6.106;2024-01-30T09:11:00;0.60;;;0.60;;
58685;SDS011;44465;53.206;-6.106;2024-01-30T09:13:26;1.50;;;1.02;;
58685;SDS011;44465;53.206;-6.106;2024-01-30T09:15:51;1.05;;;0.82;;
58685;SDS011;44465;53.206;-6.106;2024-01-30T09:18:18;0.82;;;0.60;;
58685;SDS011;44465;53.206;-6.106;2024-01-30T09:20:43;2.67;;;0.73;;
58685;SDS011;44465;53.206;-6.106;2024-01-30T09:23:12;1.05;;;0.88;;
58685;SDS011;44465;53.206;-6.106;2024-01-30T09:25:38;1.30;;;0.50;;
58685;SDS011;44465;53.206;-6.106;2024-01-30T09:28:04;1.77;;;0.60;;
58685;SDS011;44465;53.206;-6.106;2024-01-30T09:30:30;2.20;;;0.85;;
58685;SDS011;44465;53.206;-6.106;2024-01-30T09:32:55;0.82;;;0.70;;
58685;SDS011;44465;53.206;-6.106;2024-01-30T09:35:21;2.47;;;0.70;;
58685;SDS011;44465;53.206;-6.106;2024-01-30T09:37:46;1.48;;;0.77;;
58685;SDS011;44465;53.206;-6.106;2024-01-30T09:40:13;1.02;;;0.88;;
58685;SDS011;44465;53.206;-6.106;2024-01-30T09:42:39;2.78;;;1.10;;
58685;SDS011;44465;53.206;-6.106;2024-01-30T09:45:06;2.85;;;0.77;;
58685;SDS011;44465;53.206;-6.106;2024-01-30T09:47:33;6.75;;;1.27;;
58685;SDS011;44465;53.206;-6.106;2024-01-30T09:50:06;1.20;;;0.60;;
58685;SDS011;44465;53.206;-6.106;2024-01-30T09:52:33;0.60;;;0.60;;
58685;SDS011;44465;53.206;-6.106;2024-01-30T09:54:59;0.77;;;0.73;;
58685;SDS011;44465;53.206;-6.106;2024-01-30T09:57:25;0.82;;;0.80;;
58685;SDS011;44465;53.206;-6.106;2024-01-30T09:59:51;1.52;;;0.82;;
58685;SDS011;44465;53.206;-6.106;2024-01-30T10:02:19;2.72;;;0.93;;
58685;SDS011;44465;53.206;-6.106;2024-01-30T10:04:47;0.73;;;0.70;;
58685;SDS011;44465;53.206;-6.106;2024-01-30T10:07:13;0.70;;;0.57;;
58685;SDS011;44465;53.206;-6.106;2024-01-30T10:09:39;1.00;;;0.68;;
58685;SDS011;44465;53.206;-6.106;2024-01-30T10:12:06;2.03;;;1.00;;
58685;SDS011;44465;53.206;-6.106;2024-01-30T10:14:32;17.48;;;2.90;;
58685;SDS011;44465;53.206;-6.106;2024-01-30T10:16:58;6.47;;;1.00;;
58685;SDS011;44465;53.206;-6.106;2024-01-30T10:19:24;4.88;;;1.05;;
58685;SDS011;44465;53.206;-6.106;2024-01-30T10:21:50;4.85;;;1.20;;
58685;SDS011;44465;53.206;-6.106;2024-01-30T10:24:15;1.30;;;0.70;;
58685;SDS011;44465;53.206;-6.106;2024-01-30T10:26:45;2.10;;;0.68;;
58685;SDS011;44465;53.206;-6.106;2024-01-30T10:29:10;5.95;;;1.35;;
58685;SDS011;44465;53.206;-6.106;2024-01-30T10:31:36;3.55;;;1.00;;
58685;SDS011;44465;53.206;-6.106;2024-01-30T10:34:01;2.33;;;0.88;;
58685;SDS011;44465;53.206;-6.106;2024-01-30T10:36:30;3.25;;;0.82;;
58685;SDS011;44465;53.206;-6.106;2024-01-30T10:39:01;2.60;;;1.00;;
58685;SDS011;44465;53.206;-6.106;2024-01-30T10:41:27;3.67;;;1.23;;
58685;SDS011;44465;53.206;-6.106;2024-01-30T10:44:02;2.50;;;0.80;;
58685;SDS011;44465;53.206;-6.106;2024-01-30T10:49:00;1.70;;;0.70;;
58685;SDS011;44465;53.206;-6.106;2024-01-30T10:51:26;1.55;;;0.60;;
58685;SDS011;44465;53.206;-6.106;2024-01-30T10:53:52;2.50;;;0.98;;
58685;SDS011;44465;53.206;-6.106;2024-01-30T10:56:22;2.22;;;0.70;;
58685;SDS011;44465;53.206;-6.106;2024-01-30T10:58:52;0.70;;;0.70;;
58685;SDS011;44465;53.206;-6.106;2024-01-30T11:01:20;2.35;;;0.60;;
58685;SDS011;44465;53.206;-6.106;2024-01-30T11:03:53;1.90;;;0.82;;
58685;SDS011;44465;53.206;-6.106;2024-01-30T11:06:23;0.60;;;0.60;;
58685;SDS011;44465;53.206;-6.106;2024-01-30T11:09:02;1.15;;;0.70;;
58685;SDS011;44465;53.206;-6.106;2024-01-30T11:11:29;2.20;;;0.73;;
58685;SDS011;44465;53.206;-6.106;2024-01-30T11:13:55;1.25;;;0.70;;
58685;SDS011;44465;53.206;-6.106;2024-01-30T11:16:20;3.70;;;1.08;;
58685;SDS011;44465;53.206;-6.106;2024-01-30T11:18:50;1.60;;;0.77;;
58685;SDS011;44465;53.206;-6.106;2024-01-30T11:21:16;2.05;;;1.27;;
58685;SDS011;44465;53.206;-6.106;2024-01-30T11:23:42;1.60;;;1.00;;
58685;SDS011;44465;53.206;-6.106;2024-01-30T11:26:10;1.55;;;0.77;;
58685;SDS011;44465;53.206;-6.106;2024-01-30T11:28:37;0.88;;;0.50;;
58685;SDS011;44465;53.206;-6.106;2024-01-30T11:31:04;0.77;;;0.70;;
58685;SDS011;44465;53.206;-6.106;2024-01-30T11:33:30;2.27;;;0.60;;
58685;SDS011;44465;53.206;-6.106;2024-01-30T11:35:57;1.95;;;0.90;;
58685;SDS011;44465;53.206;-6.106;2024-01-30T11:38:32;1.77;;;0.70;;
58685;SDS011;44465;53.206;-6.106;2024-01-30T11:40:57;0.73;;;0.50;;
58685;SDS011;44465;53.206;-6.106;2024-01-30T11:43:23;1.88;;;1.02;;
58685;SDS011;44465;53.206;-6.106;2024-01-30T11:45:50;0.65;;;0.45;;
58685;SDS011;44465;53.206;-6.106;2024-01-30T11:48:16;1.48;;;0.73;;
58685;SDS011;44465;53.206;-6.106;2024-01-30T11:50:42;2.72;;;0.85;;
58685;SDS011;44465;53.206;-6.106;2024-01-30T11:53:09;0.75;;;0.73;;
58685;SDS011;44465;53.206;-6.106;2024-01-30T11:55:35;1.48;;;0.60;;
58685;SDS011;44465;53.206;-6.106;2024-01-30T11:58:02;0.85;;;0.73;;
58685;SDS011;44465;53.206;-6.106;2024-01-30T12:00:29;1.17;;;0.75;;
58685;SDS011;44465;53.206;-6.106;2024-01-30T12:02:56;1.55;;;0.70;;
58685;SDS011;44465;53.206;-6.106;2024-01-30T12:05:22;1.42;;;0.70;;
58685;SDS011;44465;53.206;-6.106;2024-01-30T12:07:48;0.95;;;0.60;;
58685;SDS011;44465;53.206;-6.106;2024-01-30T12:10:13;0.65;;;0.32;;
58685;SDS011;44465;53.206;-6.106;2024-01-30T12:12:39;1.17;;;0.57;;
58685;SDS011;44465;53.206;-6.106;2024-01-30T12:15:07;1.40;;;0.57;;
58685;SDS011;44465;53.206;-6.106;2024-01-30T12:17:33;2.60;;;0.60;;
58685;SDS011;44465;53.206;-6.106;2024-01-30T12:20:03;0.50;;;0.50;;
58685;SDS011;44465;53.206;-6.106;2024-01-30T12:22:35;0.63;;;0.40;;
58685;SDS011;44465;53.206;-6.106;2024-01-30T12:25:13;1.50;;;0.65;;
58685;SDS011;44465;53.206;-6.106;2024-01-30T12:27:39;0.63;;;0.60;;
58685;SDS011;44465;53.206;-6.106;2024-01-30T12:30:12;2.40;;;0.77;;
58685;SDS011;44465;53.206;-6.106;2024-01-30T12:32:39;1.70;;;0.68;;
58685;SDS011;44465;53.206;-6.106;2024-01-30T12:35:10;0.45;;;0.40;;
58685;SDS011;44465;53.206;-6.106;2024-01-30T12:37:40;1.55;;;0.80;;
58685;SDS011;44465;53.206;-6.106;2024-01-30T12:40:09;0.60;;;0.60;;
58685;SDS011;44465;53.206;-6.106;2024-01-30T12:42:36;1.13;;;0.50;;
58685;SDS011;44465;53.206;-6.106;2024-01-30T12:45:02;1.25;;;0.40;;
58685;SDS011;44465;53.206;-6.106;2024-01-30T12:47:29;0.50;;;0.50;;
58685;SDS011;44465;53.206;-6.106;2024-01-30T12:49:55;0.50;;;0.50;;
58685;SDS011;44465;53.206;-6.106;2024-01-30T12:52:21;0.75;;;0.43;;
58685;SDS011;44465;53.206;-6.106;2024-01-30T12:54:47;0.40;;;0.40;;
58685;SDS011;44465;53.206;-6.106;2024-01-30T12:57:16;0.60;;;0.60;;
58685;SDS011;44465;53.206;-6.106;2024-01-30T12:59:42;1.70;;;0.60;;
58685;SDS011;44465;53.206;-6.106;2024-01-30T13:02:09;0.40;;;0.40;;
58685;SDS011;44465;53.206;-6.106;2024-01-30T13:04:35;0.73;;;0.52;;
58685;SDS011;44465;53.206;-6.106;2024-01-30T13:07:00;1.13;;;0.43;;
58685;SDS011;44465;53.206;-6.106;2024-01-30T13:09:26;1.08;;;0.40;;
58685;SDS011;44465;53.206;-6.106;2024-01-30T13:11:52;0.90;;;0.60;;
58685;SDS011;44465;53.206;-6.106;2024-01-30T13:14:18;1.20;;;0.60;;
58685;SDS011;44465;53.206;-6.106;2024-01-30T13:16:44;0.82;;;0.50;;
58685;SDS011;44465;53.206;-6.106;2024-01-30T13:19:10;0.40;;;0.40;;
58685;SDS011;44465;53.206;-6.106;2024-01-30T13:21:36;0.60;;;0.43;;
58685;SDS011;44465;53.206;-6.106;2024-01-30T13:24:02;0.60;;;0.60;;
58685;SDS011;44465;53.206;-6.106;2024-01-30T13:26:27;0.70;;;0.40;;
58685;SDS011;44465;53.206;-6.106;2024-01-30T13:28:53;1.13;;;0.40;;
58685;SDS011;44465;53.206;-6.106;2024-01-30T13:31:19;1.15;;;0.50;;
58685;SDS011;44465;53.206;-6.106;2024-01-30T13:33:44;0.50;;;0.50;;
58685;SDS011;44465;53.206;-6.106;2024-01-30T13:36:10;0.40;;;0.40;;
58685;SDS011;44465;53.206;-6.106;2024-01-30T13:38:37;0.73;;;0.50;;
58685;SDS011;44465;53.206;-6.106;2024-01-30T13:41:04;1.25;;;0.35;;
58685;SDS011;44465;53.206;-6.106;2024-01-30T13:43:29;0.30;;;0.30;;
58685;SDS011;44465;53.206;-6.106;2024-01-30T13:45:55;0.40;;;0.40;;
58685;SDS011;44465;53.206;-6.106;2024-01-30T13:48:21;0.60;;;0.40;;
58685;SDS011;44465;53.206;-6.106;2024-01-30T13:50:47;0.93;;;0.47;;
58685;SDS011;44465;53.206;-6.106;2024-01-30T13:53:13;0.93;;;0.40;;
58685;SDS011;44465;53.206;-6.106;2024-01-30T13:55:38;0.32;;;0.32;;
58685;SDS011;44465;53.206;-6.106;2024-01-30T13:58:04;1.38;;;0.50;;
58685;SDS011;44465;53.206;-6.106;2024-01-30T14:00:30;0.52;;;0.30;;
58685;SDS011;44465;53.206;-6.106;2024-01-30T14:02:56;2.00;;;0.60;;
58685;SDS011;44465;53.206;-6.106;2024-01-30T14:05:23;1.00;;;0.60;;
58685;SDS011;44465;53.206;-6.106;2024-01-30T14:07:49;1.13;;;0.45;;
58685;SDS011;44465;53.206;-6.106;2024-01-30T14:10:15;0.88;;;0.52;;
58685;SDS011;44465;53.206;-6.106;2024-01-30T14:12:41;0.30;;;0.30;;
58685;SDS011;44465;53.206;-6.106;2024-01-30T14:15:08;0.55;;;0.45;;
58685;SDS011;44465;53.206;-6.106;2024-01-30T14:17:35;1.00;;;0.40;;
58685;SDS011;44465;53.206;-6.106;2024-01-30T14:20:01;1.20;;;0.63;;
58685;SDS011;44465;53.206;-6.106;2024-01-30T14:22:28;0.68;;;0.65;;
58685;SDS011;44465;53.206;-6.106;2024-01-30T14:24:53;1.10;;;0.40;;
58685;SDS011;44465;53.206;-6.106;2024-01-30T14:27:19;1.15;;;0.60;;
58685;SDS011;44465;53.206;-6.106;2024-01-30T14:29:44;2.05;;;0.73;;
58685;SDS011;44465;53.206;-6.106;2024-01-30T14:32:10;0.40;;;0.40;;